createdAt,value
2023-01-09T00:05:01.723Z,69.94
2023-01-09T00:10:06.636Z,69.96
2023-01-09T00:15:11.591Z,69.91
2023-01-09T00:20:14.662Z,69.83
2023-01-09T00:25:17.346Z,69.75
2023-01-09T00:30:22.973Z,69.58
2023-01-09T00:35:27.767Z,69.73
2023-01-09T00:40:31.449Z,69.97
2023-01-09T00:45:34.529Z,69.83
2023-01-09T00:50:38.151Z,69.66
2023-01-09T00:55:41.028Z,69.83
2023-01-09T01:00:43.633Z,69.73
2023-01-09T01:06:04.569Z,69.63
2023-01-09T01:11:15.015Z,69.75
2023-01-09T01:16:18.749Z,69.53
2023-01-09T01:21:21.249Z,69.60
2023-01-09T01:26:23.828Z,69.55
2023-01-09T01:31:31.917Z,69.48
2023-01-09T01:36:34.806Z,69.51
2023-01-09T01:41:38.252Z,69.67
2023-01-09T01:46:40.459Z,69.51
2023-01-09T01:51:45.696Z,69.73
2023-01-09T01:56:57.206Z,69.49
2023-01-09T02:02:01.439Z,69.51
2023-01-09T02:07:07.504Z,69.58
2023-01-09T02:12:19.394Z,69.53
2023-01-09T02:17:30.830Z,69.60
2023-01-09T02:23:17.438Z,69.65
2023-01-09T02:28:28.949Z,69.77
2023-01-09T02:33:49.951Z,69.53
2023-01-09T02:39:07.478Z,69.67
2023-01-09T02:44:15.943Z,69.74
2023-01-09T02:49:18.220Z,69.65
2023-01-09T02:54:36.079Z,69.68
2023-01-09T02:59:47.217Z,69.79
2023-01-09T03:04:59.896Z,69.95
2023-01-09T03:10:09.612Z,69.73
2023-01-09T03:15:14.055Z,69.85
2023-01-09T03:20:20.353Z,70.16
2023-01-09T03:25:23.147Z,70.20
2023-01-09T03:30:27.931Z,70.04
2023-01-09T03:35:30.203Z,70.12
2023-01-09T03:40:32.468Z,70.25
2023-01-09T03:45:35.350Z,70.41
2023-01-09T03:50:37.631Z,70.42
2023-01-09T03:55:41.092Z,70.30
2023-01-09T04:00:46.247Z,70.35
2023-01-09T04:05:50.354Z,70.39
2023-01-09T04:10:52.811Z,70.40
2023-01-09T04:15:55.099Z,70.62
2023-01-09T04:20:57.375Z,70.74
2023-01-09T04:25:59.647Z,70.59
2023-01-09T04:31:02.829Z,70.74
2023-01-09T04:36:05.508Z,70.55
2023-01-09T04:41:07.837Z,70.76
2023-01-09T04:46:10.204Z,70.73
2023-01-09T04:51:14.005Z,70.89
2023-01-09T04:56:16.296Z,70.81
2023-01-09T05:01:18.819Z,70.82
2023-01-09T05:06:21.146Z,70.87
2023-01-09T05:11:25.709Z,71.02
2023-01-09T05:16:27.943Z,70.93
2023-01-09T05:21:30.217Z,71.00
2023-01-09T05:26:32.530Z,71.14
2023-01-09T05:31:34.841Z,70.86
2023-01-09T05:36:37.159Z,71.11
2023-01-09T05:41:39.495Z,71.06
2023-01-09T05:46:41.824Z,71.18
2023-01-09T05:51:44.086Z,71.15
2023-01-09T05:56:46.388Z,71.15
2023-01-09T06:01:48.660Z,71.31
2023-01-09T06:06:50.986Z,70.98
2023-01-09T06:11:55.076Z,71.23
2023-01-09T06:16:59.696Z,71.07
2023-01-09T06:22:01.936Z,71.38
2023-01-09T06:27:10.065Z,71.19
2023-01-09T06:32:20.769Z,71.45
2023-01-09T06:37:23.507Z,71.23
2023-01-09T06:42:25.746Z,71.18
2023-01-09T06:47:30.737Z,71.53
2023-01-09T06:52:33.158Z,71.46
2023-01-09T06:57:35.600Z,71.60
2023-01-09T07:02:37.932Z,71.62
2023-01-09T07:07:41.422Z,71.57
2023-01-09T07:12:43.701Z,71.43
2023-01-09T07:17:45.954Z,71.65
2023-01-09T07:22:48.264Z,71.56
2023-01-09T07:27:50.592Z,71.52
2023-01-09T07:32:53.598Z,71.59
2023-01-09T07:37:55.916Z,71.56
2023-01-09T07:43:01.175Z,71.47
2023-01-09T07:48:07.753Z,71.59
2023-01-09T07:53:10.071Z,71.67
2023-01-09T07:58:12.340Z,71.71
2023-01-09T08:03:14.623Z,71.58
2023-01-09T08:08:17.019Z,71.55
2023-01-09T08:13:19.351Z,71.55
2023-01-09T08:18:21.645Z,71.75
2023-01-09T08:23:23.867Z,71.60
2023-01-09T08:28:26.129Z,71.75
2023-01-09T08:33:29.337Z,71.66
2023-01-09T08:38:31.665Z,71.77
2023-01-09T08:43:52.392Z,71.75
2023-01-09T08:48:54.620Z,71.58
2023-01-09T08:53:59.257Z,71.61
2023-01-09T08:59:01.583Z,71.60
2023-01-09T09:04:05.558Z,71.62
2023-01-09T09:09:07.847Z,71.41
2023-01-09T09:14:28.697Z,71.51
2023-01-09T09:19:31.075Z,71.48
2023-01-09T09:24:33.331Z,71.65
2023-01-09T09:29:35.724Z,71.39
2023-01-09T09:34:38.049Z,71.40
2023-01-09T09:39:40.291Z,71.50
2023-01-09T09:44:54.373Z,71.26
2023-01-09T09:50:21.488Z,71.52
2023-01-09T09:55:35.269Z,71.35
2023-01-09T10:00:37.743Z,71.48
2023-01-09T10:05:46.202Z,71.47
2023-01-09T10:10:52.877Z,71.54
2023-01-09T10:16:21.885Z,71.36
2023-01-09T10:21:41.561Z,71.48
2023-01-09T10:26:48.788Z,71.22
2023-01-09T10:31:57.356Z,71.33
2023-01-09T10:37:10.511Z,71.32
2023-01-09T10:42:33.720Z,71.20
2023-01-09T10:47:41.036Z,71.14
2023-01-09T10:52:43.283Z,71.16
2023-01-09T10:57:50.999Z,70.96
2023-01-09T11:02:53.843Z,71.06
2023-01-09T11:08:00.232Z,71.04
2023-01-09T11:13:21.977Z,70.83
2023-01-09T11:18:25.225Z,71.10
2023-01-09T11:23:32.737Z,70.90
2023-01-09T11:28:35.363Z,70.86
2023-01-09T11:33:41.569Z,70.78
2023-01-09T11:38:54.966Z,70.84
2023-01-09T11:44:01.046Z,70.82
2023-01-09T11:49:20.076Z,70.72
2023-01-09T11:54:29.047Z,71.07
2023-01-09T11:59:31.945Z,70.85
2023-01-09T12:04:50.561Z,70.84
2023-01-09T12:10:11.562Z,70.79
2023-01-09T12:15:37.278Z,70.71
2023-01-09T12:21:12.339Z,70.74
2023-01-09T12:26:22.292Z,70.92
2023-01-09T12:31:35.401Z,70.86
2023-01-09T12:37:13.434Z,70.84
2023-01-09T12:42:43.158Z,70.82
2023-01-09T12:47:47.730Z,70.67
2023-01-09T12:53:15.913Z,70.56
2023-01-09T12:58:50.516Z,70.62
2023-01-09T13:03:59.288Z,70.64
2023-01-09T13:09:19.240Z,70.77
2023-01-09T13:14:44.441Z,70.59
2023-01-09T13:19:47.230Z,70.66
2023-01-09T13:24:52.526Z,70.76
2023-01-09T13:30:09.207Z,70.70
2023-01-09T13:35:24.636Z,70.71
2023-01-09T13:40:28.521Z,70.56
2023-01-09T13:45:33.529Z,70.66
2023-01-09T13:50:36.295Z,70.91
2023-01-09T13:55:38.768Z,70.58
2023-01-09T14:00:44.834Z,70.74
2023-01-09T14:05:47.133Z,70.86
2023-01-09T14:10:58.066Z,70.78
2023-01-09T14:16:23.888Z,70.96
2023-01-09T14:21:26.395Z,70.79
2023-01-09T14:26:45.458Z,70.60
2023-01-09T14:31:47.751Z,70.98
2023-01-09T14:36:50.249Z,70.71
2023-01-09T14:42:16.255Z,70.89
2023-01-09T14:47:31.623Z,70.77
2023-01-09T14:52:58.604Z,70.78
2023-01-09T14:58:20.832Z,70.75
2023-01-09T15:03:23.501Z,70.73
2023-01-09T15:08:27.368Z,70.87
2023-01-09T15:13:34.416Z,70.75
2023-01-09T15:18:42.378Z,70.59
2023-01-09T15:23:44.597Z,70.74
2023-01-09T15:28:46.893Z,70.64
2023-01-09T15:33:49.336Z,70.88
2023-01-09T15:38:52.540Z,70.69
2023-01-09T15:43:54.779Z,70.70
2023-01-09T15:49:00.706Z,70.65
2023-01-09T15:54:04.378Z,70.68
2023-01-09T15:59:27.493Z,70.69
2023-01-09T16:04:29.774Z,70.72
2023-01-09T16:09:32.540Z,70.83
2023-01-09T16:14:38.789Z,70.89
2023-01-09T16:19:52.681Z,70.77
2023-01-09T16:25:02.950Z,70.94
2023-01-09T16:30:07.981Z,70.95
2023-01-09T16:35:18.490Z,70.71
2023-01-09T16:40:27.640Z,70.95
2023-01-09T16:45:34.345Z,71.06
2023-01-09T16:50:37.018Z,70.90
2023-01-09T16:55:39.292Z,70.91
2023-01-09T17:00:41.969Z,70.88
2023-01-09T17:05:44.645Z,70.70
2023-01-09T17:10:46.938Z,70.85
2023-01-09T17:15:49.359Z,70.91
2023-01-09T17:20:53.813Z,71.02
2023-01-09T17:26:17.039Z,70.71
2023-01-09T17:31:19.698Z,70.85
2023-01-09T17:36:25.036Z,70.88
2023-01-09T17:41:29.745Z,70.98
2023-01-09T17:46:42.915Z,70.95
2023-01-09T17:51:45.654Z,70.90
2023-01-09T17:56:51.325Z,70.85
2023-01-09T18:01:55.159Z,70.94
2023-01-09T18:07:02.139Z,70.88
2023-01-09T18:12:04.619Z,71.12
2023-01-09T18:17:10.817Z,70.84
2023-01-09T18:22:13.283Z,71.19
2023-01-09T18:27:15.603Z,71.03
2023-01-09T18:32:18.049Z,71.13
2023-01-09T18:37:20.540Z,71.06
2023-01-09T18:42:25.357Z,71.24
2023-01-09T18:47:27.742Z,71.19
2023-01-09T18:52:30.104Z,71.04
2023-01-09T18:57:32.518Z,71.17
2023-01-09T19:02:34.901Z,71.38
2023-01-09T19:07:37.184Z,70.80
2023-01-09T19:12:39.757Z,70.95
2023-01-09T19:17:42.257Z,71.15
2023-01-09T19:22:45.038Z,71.00
2023-01-09T19:27:47.404Z,71.06
2023-01-09T19:32:50.181Z,71.21
2023-01-09T19:37:52.427Z,71.01
2023-01-09T19:42:55.666Z,71.12
2023-01-09T19:47:59.804Z,71.04
2023-01-09T19:53:02.147Z,71.07
2023-01-09T19:58:05.271Z,71.27
2023-01-09T20:03:07.501Z,71.18
2023-01-09T20:08:09.803Z,71.17
2023-01-09T20:13:14.192Z,71.06
2023-01-09T20:18:18.270Z,71.21
2023-01-09T20:23:23.786Z,71.07
2023-01-09T20:28:27.255Z,71.23
2023-01-09T20:33:29.554Z,71.25
2023-01-09T20:38:32.900Z,71.13
2023-01-09T20:43:36.293Z,71.13
2023-01-09T20:48:38.625Z,71.33
2023-01-09T20:53:46.016Z,71.04
2023-01-09T20:58:48.271Z,71.02
2023-01-09T21:03:51.882Z,71.14
2023-01-09T21:08:57.147Z,71.00
2023-01-09T21:14:00.137Z,71.00
2023-01-09T21:19:02.503Z,70.94
2023-01-09T21:24:05.147Z,70.93
2023-01-09T21:29:08.607Z,71.13
2023-01-09T21:34:13.391Z,70.95
2023-01-09T21:39:16.819Z,71.23
2023-01-09T21:44:37.607Z,71.13
2023-01-09T21:49:41.639Z,71.13
2023-01-09T21:54:44.884Z,71.21
2023-01-09T21:59:47.349Z,71.26
2023-01-09T22:04:49.787Z,71.01
2023-01-09T22:09:52.260Z,71.14
2023-01-09T22:14:54.579Z,71.32
2023-01-09T22:19:56.826Z,71.24
2023-01-09T22:24:59.958Z,71.20
2023-01-09T22:30:02.270Z,71.19
2023-01-09T22:35:05.771Z,71.24
2023-01-09T22:40:08.763Z,71.24
2023-01-09T22:45:11.177Z,71.26
2023-01-09T22:50:13.422Z,71.23
2023-01-09T22:55:16.048Z,71.12
2023-01-09T23:00:18.670Z,71.17
2023-01-09T23:05:21.067Z,70.91
2023-01-09T23:10:23.308Z,71.07
2023-01-09T23:15:25.597Z,71.18
2023-01-09T23:20:27.930Z,71.12
2023-01-09T23:25:30.374Z,70.93
2023-01-09T23:30:32.623Z,71.07
2023-01-09T23:35:34.961Z,71.32
2023-01-09T23:40:38.160Z,71.11
2023-01-09T23:45:43.603Z,70.94
2023-01-09T23:50:51.178Z,71.16
2023-01-09T23:55:56.667Z,71.08
